createdAt,value
2023-11-07T00:00:22.564Z,12.64
2023-11-07T00:03:11.061Z,12.54
2023-11-07T00:05:40.108Z,12.53
2023-11-07T00:08:08.399Z,12.53
2023-11-07T00:10:39.261Z,12.50
2023-11-07T00:13:07.447Z,12.43
2023-11-07T00:15:35.669Z,12.41
2023-11-07T00:18:04.037Z,12.38
2023-11-07T00:20:32.317Z,12.35
2023-11-07T00:23:00.735Z,12.39
2023-11-07T00:25:28.948Z,12.43
2023-11-07T00:27:57.167Z,12.47
2023-11-07T00:30:25.991Z,12.48
2023-11-07T00:32:55.241Z,12.44
2023-11-07T00:35:24.255Z,12.41
2023-11-07T00:37:52.896Z,12.39
2023-11-07T00:40:21.090Z,12.32
2023-11-07T00:42:49.308Z,12.27
2023-11-07T00:45:17.940Z,12.18
2023-11-07T00:47:47.997Z,12.16
2023-11-07T00:50:16.775Z,12.10
2023-11-07T00:52:45.106Z,12.12
2023-11-07T00:55:13.231Z,12.14
2023-11-07T00:57:41.551Z,12.15
2023-11-07T01:00:10.646Z,12.12
2023-11-07T01:02:39.551Z,12.10
2023-11-07T01:05:08.585Z,12.08
2023-11-07T01:07:37.034Z,12.06
2023-11-07T01:10:05.747Z,12.03
2023-11-07T01:12:34.371Z,12.02
2023-11-07T01:15:04.834Z,12.01
2023-11-07T01:17:33.248Z,11.99
2023-11-07T01:20:01.846Z,11.97
2023-11-07T01:22:30.155Z,11.96
2023-11-07T01:24:58.681Z,11.96
2023-11-07T01:27:26.700Z,11.93
2023-11-07T01:29:54.883Z,11.95
2023-11-07T01:32:23.142Z,11.93
2023-11-07T01:34:51.363Z,11.90
2023-11-07T01:37:19.583Z,11.89
2023-11-07T01:39:47.709Z,11.88
2023-11-07T01:42:15.930Z,11.86
2023-11-07T01:44:52.013Z,11.86
2023-11-07T01:47:24.650Z,11.87
2023-11-07T01:49:53.929Z,11.87
2023-11-07T01:52:22.969Z,11.86
2023-11-07T01:54:55.183Z,11.86
2023-11-07T01:57:23.622Z,11.84
2023-11-07T01:59:54.383Z,11.82
2023-11-07T02:02:24.013Z,11.79
2023-11-07T02:04:52.334Z,11.75
2023-11-07T02:07:20.609Z,11.75
2023-11-07T02:09:48.826Z,11.75
2023-11-07T02:12:17.048Z,11.75
2023-11-07T02:14:45.796Z,11.76
2023-11-07T02:17:14.111Z,11.75
2023-11-07T02:19:42.307Z,11.71
2023-11-07T02:22:14.297Z,11.66
2023-11-07T02:24:42.618Z,11.59
2023-11-07T02:27:11.086Z,11.54
2023-11-07T02:29:39.343Z,11.45
2023-11-07T02:32:07.719Z,11.42
2023-11-07T02:34:35.943Z,11.40
2023-11-07T02:37:04.501Z,11.39
2023-11-07T02:39:32.787Z,11.36
2023-11-07T02:42:01.181Z,11.34
2023-11-07T02:44:29.633Z,11.33
2023-11-07T02:46:57.747Z,11.31
2023-11-07T02:49:26.231Z,11.30
2023-11-07T02:51:54.490Z,11.25
2023-11-07T02:54:23.319Z,11.21
2023-11-07T02:56:51.558Z,11.17
2023-11-07T02:59:19.752Z,11.16
2023-11-07T03:01:52.024Z,11.15
2023-11-07T03:04:20.664Z,11.14
2023-11-07T03:06:49.014Z,11.10
2023-11-07T03:09:17.372Z,11.02
2023-11-07T03:11:45.693Z,10.97
2023-11-07T03:14:14.088Z,10.97
2023-11-07T03:16:42.614Z,10.98
2023-11-07T03:19:10.720Z,11.00
2023-11-07T03:21:39.155Z,11.01
2023-11-07T03:24:10.680Z,11.00
2023-11-07T03:26:38.927Z,10.99
2023-11-07T03:29:07.734Z,11.02
2023-11-07T03:31:36.769Z,11.07
2023-11-07T03:34:06.263Z,11.13
2023-11-07T03:36:34.830Z,11.17
2023-11-07T03:39:03.699Z,11.18
2023-11-07T03:41:32.067Z,11.19
2023-11-07T03:44:00.368Z,11.18
2023-11-07T03:46:28.592Z,11.15
2023-11-07T03:48:56.870Z,11.17
2023-11-07T03:51:25.223Z,11.25
2023-11-07T03:53:55.298Z,11.29
2023-11-07T03:56:24.278Z,11.32
2023-11-07T03:58:52.698Z,11.30
2023-11-07T04:01:21.016Z,11.27
2023-11-07T04:03:49.238Z,11.28
2023-11-07T04:06:17.863Z,11.23
2023-11-07T04:08:46.323Z,11.13
2023-11-07T04:11:14.999Z,11.06
2023-11-07T04:13:43.952Z,10.97
2023-11-07T04:16:12.145Z,10.89
2023-11-07T04:18:41.349Z,10.89
2023-11-07T04:21:09.742Z,10.87
2023-11-07T04:23:38.553Z,10.84
2023-11-07T04:26:09.030Z,10.81
2023-11-07T04:28:40.767Z,10.82
2023-11-07T04:31:09.233Z,10.83
2023-11-07T04:33:37.971Z,10.80
2023-11-07T04:36:07.055Z,10.72
2023-11-07T04:38:36.293Z,10.69
2023-11-07T04:41:04.780Z,10.67
2023-11-07T04:43:37.226Z,10.66
2023-11-07T04:46:06.274Z,10.65
2023-11-07T04:48:34.733Z,10.65
2023-11-07T04:51:04.159Z,10.69
2023-11-07T04:53:34.348Z,10.71
2023-11-07T04:56:02.734Z,10.68
2023-11-07T04:58:30.954Z,10.67
2023-11-07T05:00:59.080Z,10.60
2023-11-07T05:03:33.330Z,10.47
2023-11-07T05:06:08.042Z,10.37
2023-11-07T05:08:36.424Z,10.31
2023-11-07T05:11:05.206Z,10.26
2023-11-07T05:13:33.334Z,10.20
2023-11-07T05:16:01.557Z,10.17
2023-11-07T05:18:29.856Z,10.17
2023-11-07T05:20:58.234Z,10.15
2023-11-07T05:23:26.513Z,10.15
2023-11-07T05:25:55.637Z,10.19
2023-11-07T05:28:23.858Z,10.25
2023-11-07T05:30:51.998Z,10.30
2023-11-07T05:33:20.426Z,10.39
2023-11-07T05:35:48.690Z,10.47
2023-11-07T05:38:17.962Z,10.53
2023-11-07T05:40:46.473Z,10.61
2023-11-07T05:43:15.093Z,10.70
2023-11-07T05:45:43.315Z,10.76
2023-11-07T05:48:12.054Z,10.80
2023-11-07T05:50:40.999Z,10.85
2023-11-07T05:53:09.804Z,10.91
2023-11-07T05:55:38.116Z,11.01
2023-11-07T05:58:08.583Z,11.12
2023-11-07T06:00:36.940Z,11.21
2023-11-07T06:03:06.445Z,11.29
2023-11-07T06:05:35.550Z,11.34
2023-11-07T06:08:04.103Z,11.40
2023-11-07T06:10:32.327Z,11.47
2023-11-07T06:13:00.539Z,11.53
2023-11-07T06:15:29.477Z,11.57
2023-11-07T06:17:58.145Z,11.64
2023-11-07T06:20:26.410Z,11.74
2023-11-07T06:22:55.834Z,11.89
2023-11-07T06:25:25.255Z,12.06
2023-11-07T06:27:53.570Z,12.22
2023-11-07T06:30:23.209Z,12.35
2023-11-07T06:32:51.506Z,12.46
2023-11-07T06:35:20.039Z,12.56
2023-11-07T06:37:48.266Z,12.68
2023-11-07T06:40:19.411Z,12.80
2023-11-07T06:42:48.452Z,12.98
2023-11-07T06:45:17.005Z,13.15
2023-11-07T06:47:47.427Z,13.33
2023-11-07T06:50:17.342Z,13.49
2023-11-07T06:52:51.707Z,13.67
2023-11-07T06:55:26.541Z,13.87
2023-11-07T06:57:57.174Z,14.09
2023-11-07T07:00:28.442Z,14.31
2023-11-07T07:02:58.104Z,14.48
2023-11-07T07:05:27.502Z,14.64
2023-11-07T07:07:56.854Z,14.81
2023-11-07T07:10:25.443Z,14.97
2023-11-07T07:12:55.053Z,15.14
2023-11-07T07:15:23.383Z,15.31
2023-11-07T07:17:52.849Z,15.50
2023-11-07T07:20:21.026Z,15.67
2023-11-07T07:22:49.348Z,15.82
2023-11-07T07:25:21.807Z,15.96
2023-11-07T07:27:51.295Z,16.05
2023-11-07T07:30:27.705Z,16.13
2023-11-07T07:32:57.071Z,16.21
2023-11-07T07:35:28.243Z,16.27
2023-11-07T07:37:57.572Z,16.35
2023-11-07T07:40:27.766Z,16.44
2023-11-07T07:42:59.797Z,16.53
2023-11-07T07:45:28.515Z,16.63
2023-11-07T07:47:58.797Z,16.76
2023-11-07T07:50:31.998Z,16.89
2023-11-07T07:53:03.659Z,17.01
2023-11-07T07:55:35.234Z,17.10
2023-11-07T07:58:07.914Z,17.18
2023-11-07T08:00:39.126Z,17.30
2023-11-07T08:03:12.693Z,17.42
2023-11-07T08:05:45.639Z,17.58
2023-11-07T08:08:18.145Z,17.71
2023-11-07T08:10:50.023Z,17.84
2023-11-07T08:13:20.187Z,17.97
2023-11-07T08:15:51.791Z,18.11
2023-11-07T08:18:20.840Z,18.22
2023-11-07T08:20:51.764Z,18.32
2023-11-07T08:23:20.190Z,18.44
2023-11-07T08:25:49.019Z,18.53
2023-11-07T08:28:18.966Z,18.60
2023-11-07T08:30:47.679Z,18.69
2023-11-07T08:33:16.001Z,18.77
2023-11-07T08:35:44.980Z,18.85
2023-11-07T08:38:13.626Z,18.92
2023-11-07T08:40:42.450Z,19.00
2023-11-07T08:43:11.090Z,19.05
2023-11-07T08:45:39.351Z,19.10
2023-11-07T08:48:08.372Z,19.18
2023-11-07T08:50:38.656Z,19.27
2023-11-07T08:53:07.333Z,19.36
2023-11-07T08:55:35.779Z,19.47
2023-11-07T08:58:04.845Z,19.59
2023-11-07T09:00:33.967Z,19.65
2023-11-07T09:03:02.361Z,19.70
2023-11-07T09:05:30.678Z,19.77
2023-11-07T09:07:58.996Z,19.80
2023-11-07T09:10:27.823Z,19.81
2023-11-07T09:12:56.037Z,19.83
2023-11-07T09:15:26.980Z,19.90
2023-11-07T09:17:55.358Z,19.98
2023-11-07T09:20:23.811Z,20.05
2023-11-07T09:22:52.165Z,20.07
2023-11-07T09:25:22.558Z,20.07
2023-11-07T09:27:53.280Z,20.07
2023-11-07T09:30:21.831Z,20.10
2023-11-07T09:32:52.291Z,20.13
2023-11-07T09:35:21.020Z,20.14
2023-11-07T09:37:51.369Z,20.10
2023-11-07T09:40:24.329Z,20.06
2023-11-07T09:42:55.310Z,20.07
2023-11-07T09:45:24.423Z,20.12
2023-11-07T09:47:53.054Z,20.23
2023-11-07T09:50:23.541Z,20.28
2023-11-07T09:52:54.221Z,20.29
2023-11-07T09:55:29.385Z,20.28
2023-11-07T09:58:15.219Z,20.33
2023-11-07T10:00:46.942Z,20.37
2023-11-07T10:03:16.869Z,20.43
2023-11-07T10:05:49.087Z,20.50
2023-11-07T10:08:20.405Z,20.56
2023-11-07T10:11:07.993Z,20.62
2023-11-07T10:13:36.363Z,20.68
2023-11-07T10:16:18.167Z,20.73
2023-11-07T10:18:51.960Z,20.75
2023-11-07T10:21:33.892Z,20.80
2023-11-07T10:24:02.750Z,20.84
2023-11-07T10:26:31.710Z,20.84
2023-11-07T10:29:17.964Z,20.89
2023-11-07T10:32:04.412Z,20.97
2023-11-07T10:34:33.583Z,21.01
2023-11-07T10:37:02.026Z,21.05
2023-11-07T10:39:31.889Z,21.10
2023-11-07T10:42:17.961Z,21.17
2023-11-07T10:44:49.781Z,21.31
2023-11-07T10:47:21.394Z,21.48
2023-11-07T10:49:52.157Z,21.62
2023-11-07T10:52:20.784Z,21.69
2023-11-07T10:54:49.198Z,21.74
2023-11-07T10:57:24.086Z,21.78
2023-11-07T11:00:21.112Z,21.79
2023-11-07T11:02:54.933Z,21.85
2023-11-07T11:05:28.138Z,22.01
2023-11-07T11:08:00.976Z,22.21
2023-11-07T11:10:30.947Z,22.42
2023-11-07T11:13:00.036Z,22.56
2023-11-07T11:15:29.596Z,22.64
2023-11-07T11:18:11.484Z,22.70
2023-11-07T11:21:18.153Z,22.73
2023-11-07T11:23:54.968Z,22.82
2023-11-07T11:26:34.038Z,22.83
2023-11-07T11:29:26.246Z,22.85
2023-11-07T11:31:55.668Z,22.93
2023-11-07T11:34:29.660Z,23.04
2023-11-07T11:36:59.525Z,23.27
2023-11-07T11:39:30.865Z,23.56
2023-11-07T11:42:02.314Z,23.87
2023-11-07T11:44:30.961Z,24.15
2023-11-07T11:47:01.144Z,24.42
2023-11-07T11:49:29.553Z,24.65
2023-11-07T11:51:59.151Z,24.80
2023-11-07T11:54:34.830Z,25.02
2023-11-07T11:57:03.049Z,25.21
2023-11-07T11:59:55.781Z,25.40
2023-11-07T12:02:41.315Z,25.59
2023-11-07T12:05:20.059Z,25.89
2023-11-07T12:07:50.026Z,26.02
2023-11-07T12:10:22.767Z,26.07
2023-11-07T12:13:02.659Z,26.17
2023-11-07T12:15:31.133Z,26.19
2023-11-07T12:18:00.564Z,26.14
2023-11-07T12:20:29.041Z,26.20
2023-11-07T12:22:57.267Z,26.30
2023-11-07T12:25:26.604Z,26.34
2023-11-07T12:27:58.093Z,26.32
2023-11-07T12:30:26.481Z,26.03
2023-11-07T12:33:03.381Z,25.75
2023-11-07T12:35:32.540Z,25.72
2023-11-07T12:38:08.428Z,25.66
2023-11-07T12:40:39.566Z,25.64
2023-11-07T12:43:10.860Z,25.59
2023-11-07T12:45:40.549Z,25.53
2023-11-07T12:48:15.401Z,25.57
2023-11-07T12:50:45.513Z,25.62
2023-11-07T12:53:16.254Z,25.67
2023-11-07T12:56:04.680Z,25.63
2023-11-07T12:58:32.978Z,25.43
2023-11-07T13:01:05.659Z,25.52
2023-11-07T13:03:35.704Z,25.61
2023-11-07T13:06:06.198Z,25.44
2023-11-07T13:08:36.546Z,25.22
2023-11-07T13:11:11.892Z,25.10
2023-11-07T13:13:51.337Z,24.88
2023-11-07T13:16:20.478Z,24.62
2023-11-07T13:18:59.415Z,24.40
2023-11-07T13:21:28.408Z,24.12
2023-11-07T13:23:56.940Z,23.76
2023-11-07T13:26:26.038Z,23.50
2023-11-07T13:28:54.260Z,23.35
2023-11-07T13:31:22.875Z,23.06
2023-11-07T13:33:52.094Z,22.74
2023-11-07T13:36:21.481Z,22.45
2023-11-07T13:38:49.873Z,22.14
2023-11-07T13:41:18.398Z,21.80
2023-11-07T13:43:47.105Z,21.50
2023-11-07T13:46:19.753Z,21.23
2023-11-07T13:48:54.492Z,21.02
2023-11-07T13:51:23.037Z,20.79
2023-11-07T13:53:52.684Z,20.57
2023-11-07T13:56:22.277Z,20.38
2023-11-07T13:58:50.772Z,20.23
2023-11-07T14:01:19.081Z,20.09
2023-11-07T14:03:47.917Z,19.97
2023-11-07T14:06:19.613Z,19.89
2023-11-07T14:08:49.227Z,19.82
2023-11-07T14:11:17.978Z,19.77
2023-11-07T14:13:51.920Z,19.71
2023-11-07T14:16:20.344Z,19.69
2023-11-07T14:18:51.085Z,19.67
2023-11-07T14:21:21.316Z,19.62
2023-11-07T14:23:49.888Z,19.59
2023-11-07T14:26:19.146Z,19.54
2023-11-07T14:28:55.380Z,19.47
2023-11-07T14:31:31.481Z,19.39
2023-11-07T14:34:00.561Z,19.32
2023-11-07T14:36:29.652Z,19.24
2023-11-07T14:38:58.339Z,19.15
2023-11-07T14:41:29.940Z,19.05
2023-11-07T14:43:58.271Z,18.95
2023-11-07T14:46:26.391Z,18.83
2023-11-07T14:48:57.585Z,18.71
2023-11-07T14:51:26.691Z,18.56
2023-11-07T14:53:55.238Z,18.43
2023-11-07T14:56:25.603Z,18.32
2023-11-07T14:58:54.729Z,18.24
2023-11-07T15:01:23.973Z,18.16
2023-11-07T15:03:52.622Z,18.08
2023-11-07T15:06:21.338Z,17.96
2023-11-07T15:08:49.901Z,17.86
2023-11-07T15:11:18.231Z,17.77
2023-11-07T15:13:46.449Z,17.70
2023-11-07T15:16:15.773Z,17.62
2023-11-07T15:18:44.087Z,17.57
2023-11-07T15:21:13.017Z,17.51
2023-11-07T15:23:42.133Z,17.43
2023-11-07T15:26:10.453Z,17.34
2023-11-07T15:28:38.876Z,17.28
2023-11-07T15:31:07.197Z,17.17
2023-11-07T15:33:35.986Z,17.03
2023-11-07T15:36:04.963Z,16.88
2023-11-07T15:38:33.969Z,16.74
2023-11-07T15:41:02.291Z,16.61
2023-11-07T15:43:30.508Z,16.54
2023-11-07T15:46:01.073Z,16.52
2023-11-07T15:48:29.430Z,16.53
2023-11-07T15:50:58.007Z,16.53
2023-11-07T15:53:26.418Z,16.52
2023-11-07T15:55:54.720Z,16.44
2023-11-07T15:58:23.142Z,16.33
2023-11-07T16:00:51.364Z,16.24
2023-11-07T16:03:20.027Z,16.17
2023-11-07T16:05:48.572Z,16.11
2023-11-07T16:08:17.528Z,16.10
2023-11-07T16:10:46.555Z,16.10
2023-11-07T16:13:15.571Z,16.08
2023-11-07T16:15:43.913Z,16.06
2023-11-07T16:18:12.706Z,16.02
2023-11-07T16:20:44.080Z,15.99
2023-11-07T16:23:12.693Z,15.97
2023-11-07T16:25:41.247Z,15.95
2023-11-07T16:28:10.015Z,15.94
2023-11-07T16:30:40.512Z,15.93
2023-11-07T16:55:48.171Z,16.16
2023-11-07T16:58:16.601Z,16.31
2023-11-07T17:00:46.518Z,16.27
2023-11-07T17:03:15.145Z,16.21
2023-11-07T17:05:43.767Z,16.16
2023-11-07T17:08:13.864Z,16.13
2023-11-07T17:10:42.312Z,16.09
2023-11-07T17:13:11.742Z,16.07
2023-11-07T17:15:42.967Z,16.04
2023-11-07T17:18:11.670Z,16.01
2023-11-07T17:20:40.116Z,15.99
2023-11-07T17:23:08.333Z,15.97
2023-11-07T17:25:36.654Z,15.97
2023-11-07T17:28:05.273Z,15.95
2023-11-07T17:30:33.306Z,15.93
2023-11-07T17:33:01.920Z,15.89
2023-11-07T17:35:30.485Z,15.85
2023-11-07T17:37:59.103Z,15.83
2023-11-07T17:40:29.394Z,15.80
2023-11-07T17:42:57.605Z,15.79
2023-11-07T17:45:25.939Z,15.78
2023-11-07T17:47:56.415Z,15.82
2023-11-07T17:50:26.297Z,15.87
2023-11-07T17:52:54.507Z,15.93
2023-11-07T17:55:23.925Z,16.00
2023-11-07T17:57:52.273Z,16.00
2023-11-07T18:00:20.676Z,15.92
2023-11-07T18:02:49.363Z,15.82
2023-11-07T18:05:17.939Z,15.71
2023-11-07T18:07:46.140Z,15.67
2023-11-07T18:10:14.768Z,15.66
2023-11-07T18:12:43.180Z,15.66
2023-11-07T18:15:11.633Z,15.67
2023-11-07T18:17:40.116Z,15.68
2023-11-07T18:20:13.279Z,15.66
2023-11-07T18:22:42.024Z,15.69
2023-11-07T18:25:11.119Z,15.72
2023-11-07T18:27:39.983Z,15.72
2023-11-07T18:30:09.254Z,15.70
2023-11-07T18:32:38.427Z,15.71
2023-11-07T18:35:07.831Z,15.71
2023-11-07T18:55:23.801Z,15.92
2023-11-07T18:57:51.999Z,15.96
2023-11-07T19:00:22.523Z,15.83
2023-11-07T19:02:50.986Z,15.73
2023-11-07T19:05:19.254Z,15.65
2023-11-07T19:07:48.453Z,15.61
2023-11-07T19:10:20.725Z,15.55
2023-11-07T19:12:48.948Z,15.40
2023-11-07T19:15:17.817Z,15.16
2023-11-07T19:17:47.717Z,14.95
2023-11-07T19:20:17.924Z,14.83
2023-11-07T19:22:46.856Z,14.73
2023-11-07T19:25:15.267Z,14.67
2023-11-07T19:27:43.592Z,14.61
2023-11-07T19:30:12.741Z,14.58
2023-11-07T19:32:42.315Z,14.57
2023-11-07T19:35:12.918Z,14.54
2023-11-07T19:37:41.889Z,14.57
2023-11-07T19:40:10.837Z,14.64
2023-11-07T19:42:40.375Z,14.70
2023-11-07T19:45:09.591Z,14.75
2023-11-07T19:47:38.522Z,14.80
2023-11-07T19:50:08.128Z,14.84
2023-11-07T19:52:36.431Z,14.88
2023-11-07T19:55:05.254Z,14.93
2023-11-07T19:57:33.642Z,14.99
2023-11-07T20:00:02.157Z,15.07
2023-11-07T20:02:32.826Z,15.16
2023-11-07T20:05:01.173Z,15.21
2023-11-07T20:07:29.467Z,15.21
2023-11-07T20:09:57.689Z,15.23
2023-11-07T20:12:26.048Z,15.27
2023-11-07T20:14:54.220Z,15.27
2023-11-07T20:17:22.355Z,15.27
2023-11-07T20:19:50.565Z,15.28
2023-11-07T20:22:19.093Z,15.33
2023-11-07T20:24:47.309Z,15.37
2023-11-07T20:27:15.982Z,15.40
2023-11-07T20:29:45.960Z,15.41
2023-11-07T20:32:14.474Z,15.40
2023-11-07T20:34:48.408Z,15.38
2023-11-07T20:37:21.667Z,15.32
2023-11-07T20:39:49.977Z,15.27
2023-11-07T20:42:18.641Z,15.25
2023-11-07T20:44:49.838Z,15.25
2023-11-07T20:47:20.356Z,15.26
2023-11-07T20:49:50.597Z,15.26
2023-11-07T20:52:25.302Z,15.25
2023-11-07T20:54:57.072Z,15.23
2023-11-07T20:57:26.071Z,15.20
2023-11-07T20:59:55.612Z,15.20
2023-11-07T21:02:25.643Z,15.22
2023-11-07T21:04:56.064Z,15.25
2023-11-07T21:07:24.583Z,15.28
2023-11-07T21:09:53.209Z,15.32
2023-11-07T21:12:21.501Z,15.33
2023-11-07T21:14:51.555Z,15.36
2023-11-07T21:17:21.230Z,15.38
2023-11-07T21:19:49.561Z,15.35
2023-11-07T21:22:17.816Z,15.22
2023-11-07T21:24:46.949Z,15.13
2023-11-07T21:27:16.066Z,15.08
2023-11-07T21:29:44.686Z,15.00
2023-11-07T21:32:12.909Z,14.92
2023-11-07T21:34:42.334Z,14.83
2023-11-07T21:37:11.799Z,14.76
2023-11-07T21:39:41.059Z,14.75
2023-11-07T21:42:11.292Z,14.71
2023-11-07T21:44:41.138Z,14.59
2023-11-07T21:47:11.337Z,14.46
2023-11-07T21:49:42.195Z,14.38
2023-11-07T21:52:10.714Z,14.30
2023-11-07T21:54:38.967Z,14.22
2023-11-07T21:57:07.184Z,14.15
2023-11-07T21:59:35.784Z,14.11
2023-11-07T22:02:04.206Z,14.08
2023-11-07T22:04:32.360Z,14.02
2023-11-07T22:07:00.614Z,13.97
2023-11-07T22:09:29.102Z,13.94
2023-11-07T22:11:57.383Z,13.93
2023-11-07T22:14:25.505Z,13.92
2023-11-07T22:16:53.625Z,13.90
2023-11-07T22:19:21.960Z,13.94
2023-11-07T22:21:50.239Z,13.99
2023-11-07T22:24:18.610Z,14.01
2023-11-07T22:26:48.310Z,13.98
2023-11-07T22:29:16.633Z,13.85
2023-11-07T22:31:44.851Z,13.69
2023-11-07T22:34:13.117Z,13.58
2023-11-07T22:36:42.027Z,13.56
2023-11-07T22:39:10.923Z,13.52
2023-11-07T22:41:39.237Z,13.45
2023-11-07T22:44:07.358Z,13.37
2023-11-07T22:46:35.477Z,13.31
2023-11-07T22:49:03.773Z,13.25
2023-11-07T22:51:33.657Z,13.18
2023-11-07T22:54:02.043Z,13.10
2023-11-07T22:56:30.262Z,13.01
2023-11-07T22:58:58.274Z,12.91
2023-11-07T23:01:26.409Z,12.83
2023-11-07T23:03:54.622Z,12.78
2023-11-07T23:06:24.579Z,12.73
2023-11-07T23:08:54.745Z,12.70
2023-11-07T23:11:23.610Z,12.68
2023-11-07T23:13:51.921Z,12.66
2023-11-07T23:16:20.442Z,12.68
2023-11-07T23:18:48.527Z,12.69
2023-11-07T23:21:17.113Z,12.73
2023-11-07T23:23:45.306Z,12.74
2023-11-07T23:26:13.422Z,12.74
2023-11-07T23:28:41.643Z,12.72
2023-11-07T23:31:09.988Z,12.70
2023-11-07T23:33:38.759Z,12.69
2023-11-07T23:36:07.825Z,12.68
2023-11-07T23:38:36.244Z,12.66
2023-11-07T23:41:05.241Z,12.65
2023-11-07T23:43:33.474Z,12.62
2023-11-07T23:46:01.699Z,12.55
2023-11-07T23:48:30.641Z,12.47
2023-11-07T23:50:59.036Z,12.41
2023-11-07T23:53:27.279Z,12.38
2023-11-07T23:55:55.372Z,12.38
2023-11-07T23:58:23.499Z,12.38
